Niagara, Wisconsin
Current Conditions -  °F | °C
As of 6:54 AM on Sunday 21 Dec 2014 (Local Time) from KIMT Reporting Station
Haze Haze  
Wind Chill: -7°   Ceiling: 600
Heat Index: -3°   Visibility: 4mi
Dew Point: -4°   Wind: 8mph
Humidity: 89%   Direction: 140°SE
Pressure: 30.08"   Gusts: NA
Location:  45.77°N, 87.99°W
Report Text: KIMT 211254Z AUTO 14007KT 4SM BR OVC006 M03/M04 A3008 RMK AO2 SLP206 T10281044
Loading
Personal Weather Stations






























Interactive Weather Map New forecast layout! Learn more

10-Day Weather Forecast

Advertisements
Track Severe Weather on mobile